Time;durP1;ratioP1;P1;durP2;ratioP2;P2;SDS_P1;SDS_P2;PMS_P1;PMS_P2;Temp;Humidity;BMP_temperature;BMP_pressure;BME280_temperature;BME280_humidity;BME280_pressure;Samples;Min_cycle;Max_cycle;Signal;HPM_P1;HPM_P2
2022/07/28 00:02:04;;;;;;;1.83;0.60;;;14.70;99.90;;;;;;5029059;28;20129;-67
2022/07/28 00:04:32;;;;;;;0.50;0.50;;;14.80;99.90;;;;;;5031814;28;20804;-67
2022/07/28 00:07:00;;;;;;;0.88;0.50;;;14.80;99.90;;;;;;5031156;28;20049;-64
2022/07/28 00:09:27;;;;;;;0.50;0.30;;;14.80;99.90;;;;;;5034897;28;20068;-65
2022/07/28 00:11:54;;;;;;;0.57;0.47;;;14.80;99.90;;;;;;5036746;28;20071;-67
2022/07/28 00:14:21;;;;;;;0.25;0.25;;;14.80;99.90;;;;;;5034031;28;20431;-65
2022/07/28 00:16:50;;;;;;;0.50;0.50;;;14.70;99.90;;;;;;5032608;28;20095;-67
2022/07/28 00:19:17;;;;;;;0.63;0.60;;;14.70;99.90;;;;;;5027470;28;21200;-68
2022/07/28 00:21:44;;;;;;;0.40;0.40;;;14.70;99.90;;;;;;5041630;28;20079;-65
2022/07/28 00:24:11;;;;;;;0.30;0.30;;;14.70;99.90;;;;;;5045633;28;20049;-65
2022/07/28 00:26:39;;;;;;;0.68;0.45;;;14.60;99.90;;;;;;5045243;28;20467;-65
2022/07/28 00:29:07;;;;;;;0.55;0.55;;;14.60;99.90;;;;;;5038513;28;20110;-65
2022/07/28 00:31:34;;;;;;;0.40;0.40;;;14.60;99.90;;;;;;5040251;28;20448;-64
2022/07/28 00:34:01;;;;;;;0.65;0.65;;;14.60;99.90;;;;;;5041227;28;20053;-65
2022/07/28 00:36:28;;;;;;;0.77;0.38;;;14.60;99.90;;;;;;5036374;28;20065;-66
2022/07/28 00:38:54;;;;;;;0.95;0.40;;;14.60;99.90;;;;;;5036565;28;20058;-65
2022/07/28 00:41:22;;;;;;;0.98;0.63;;;14.50;99.90;;;;;;5041332;28;20148;-65
2022/07/28 00:43:50;;;;;;;1.85;0.82;;;14.50;99.90;;;;;;5040736;28;20141;-65
2022/07/28 00:46:22;;;;;;;1.77;0.70;;;14.50;99.90;;;;;;5042705;28;20160;-66
2022/07/28 00:48:51;;;;;;;0.77;0.57;;;14.50;99.90;;;;;;5041650;28;20072;-69
2022/07/28 00:51:24;;;;;;;0.90;0.52;;;14.40;99.90;;;;;;5034367;28;20052;-65
2022/07/28 00:53:52;;;;;;;0.88;0.60;;;14.40;99.90;;;;;;5041845;28;20447;-66
2022/07/28 00:56:19;;;;;;;0.77;0.70;;;14.30;99.90;;;;;;5041925;28;20045;-69
2022/07/28 00:58:46;;;;;;;1.55;1.05;;;14.30;99.90;;;;;;5045367;28;20073;-67
2022/07/28 01:01:18;;;;;;;0.75;0.75;;;14.20;99.90;;;;;;5042014;28;20041;-65
2022/07/28 01:03:53;;;;;;;0.60;0.60;;;14.20;99.90;;;;;;5041539;28;20053;-65
2022/07/28 01:06:48;;;;;;;2.03;0.75;;;14.20;99.90;;;;;;5042370;28;20459;-69
2022/07/28 01:09:15;;;;;;;1.50;1.10;;;14.30;99.90;;;;;;5042175;28;20040;-65
2022/07/28 01:12:00;;;;;;;4.10;0.80;;;14.20;99.90;;;;;;5041017;28;20144;-65
2022/07/28 01:14:51;;;;;;;1.38;1.05;;;14.20;99.90;;;;;;5037748;28;20182;-65
2022/07/28 01:17:18;;;;;;;2.95;1.40;;;14.30;99.90;;;;;;5031037;28;20876;-65
2022/07/28 01:19:57;;;;;;;1.65;0.65;;;14.20;99.90;;;;;;5041462;28;20147;-67
2022/07/28 01:22:31;;;;;;;4.43;1.00;;;14.20;99.90;;;;;;5039292;28;20052;-65
2022/07/28 01:25:18;;;;;;;2.47;0.73;;;14.20;99.90;;;;;;5039303;28;20036;-67
2022/07/28 01:27:52;;;;;;;1.75;0.70;;;14.20;99.90;;;;;;5038589;28;20571;-64
2022/07/28 01:30:33;;;;;;;2.72;0.90;;;14.10;99.90;;;;;;5041716;28;20172;-66
2022/07/28 01:33:11;;;;;;;1.15;0.75;;;14.10;99.90;;;;;;5040225;28;20126;-65
2022/07/28 01:36:02;;;;;;;0.93;0.60;;;14.10;99.90;;;;;;5038134;28;20069;-69
2022/07/28 01:38:32;;;;;;;1.02;0.80;;;14.00;99.90;;;;;;5035372;28;20068;-65
2022/07/28 01:41:01;;;;;;;1.08;0.68;;;13.90;99.90;;;;;;5032971;28;20045;-67
2022/07/28 01:43:32;;;;;;;0.75;0.38;;;13.80;99.90;;;;;;5039781;28;20141;-66
2022/07/28 01:46:01;;;;;;;0.43;0.43;;;13.80;99.90;;;;;;5041791;28;20124;-65
2022/07/28 01:48:30;;;;;;;0.93;0.22;;;13.70;99.90;;;;;;5042128;28;20053;-64
2022/07/28 01:50:57;;;;;;;2.25;0.95;;;13.70;99.90;;;;;;5042402;28;20136;-67
2022/07/28 01:53:25;;;;;;;0.47;0.47;;;13.70;99.90;;;;;;5038664;28;20048;-65
2022/07/28 01:55:53;;;;;;;1.23;0.47;;;13.60;99.90;;;;;;5042121;28;20140;-65
2022/07/28 01:58:23;;;;;;;2.72;0.40;;;13.60;99.90;;;;;;5043205;28;20040;-68
2022/07/28 02:00:51;;;;;;;1.17;0.70;;;13.60;99.90;;;;;;5042705;28;20521;-65
2022/07/28 02:03:21;;;;;;;1.73;0.55;;;13.60;99.90;;;;;;5037317;28;20317;-67
2022/07/28 02:05:51;;;;;;;0.52;0.52;;;13.60;99.90;;;;;;5041104;28;20053;-64
2022/07/28 02:08:21;;;;;;;1.60;0.55;;;13.60;99.90;;;;;;5040227;28;20053;-65
2022/07/28 02:13:41;;;;;;;0.32;0.30;;;13.50;99.90;;;;;;5038775;28;20403;-66
2022/07/28 02:16:10;;;;;;;1.80;0.52;;;13.50;99.90;;;;;;5041047;28;20049;-67
2022/07/28 02:18:39;;;;;;;0.37;0.37;;;13.50;99.90;;;;;;5040262;28;20048;-67
2022/07/28 02:21:07;;;;;;;1.05;0.65;;;13.50;99.90;;;;;;5043128;28;20399;-66
2022/07/28 02:23:36;;;;;;;1.00;0.57;;;13.40;99.90;;;;;;5041047;28;20049;-68
2022/07/28 02:26:08;;;;;;;1.48;0.50;;;13.40;99.90;;;;;;5042174;28;20143;-73
2022/07/28 02:28:36;;;;;;;0.68;0.47;;;13.40;99.90;;;;;;5040487;28;20044;-65
2022/07/28 02:31:15;;;;;;;0.35;0.35;;;13.40;99.90;;;;;;5034982;28;20059;-66
2022/07/28 02:33:44;;;;;;;1.08;0.60;;;13.30;99.90;;;;;;5039310;28;21012;-66
2022/07/28 02:36:27;;;;;;;0.82;0.43;;;13.30;99.90;;;;;;5038805;28;20049;-66
2022/07/28 02:39:02;;;;;;;1.27;0.50;;;13.30;99.90;;;;;;5041390;28;20069;-66
2022/07/28 02:41:35;;;;;;;0.60;0.60;;;13.20;99.90;;;;;;5038046;28;20402;-66
2022/07/28 02:44:10;;;;;;;0.65;0.60;;;13.30;99.90;;;;;;5036005;28;20049;-65
2022/07/28 02:46:43;;;;;;;1.88;0.75;;;13.20;99.90;;;;;;5042977;28;20041;-66
2022/07/28 02:49:16;;;;;;;0.40;0.40;;;13.10;99.90;;;;;;5037938;28;20037;-71
2022/07/28 02:51:45;;;;;;;0.52;0.43;;;13.10;99.90;;;;;;5044231;28;20144;-65
2022/07/28 02:54:13;;;;;;;0.60;0.40;;;13.10;99.90;;;;;;5036128;28;21176;-67
2022/07/28 02:56:41;;;;;;;0.43;0.43;;;13.10;99.90;;;;;;5042367;28;20119;-64
2022/07/28 02:59:20;;;;;;;0.93;0.90;;;13.10;99.90;;;;;;5034779;28;20059;-68
2022/07/28 03:01:48;;;;;;;1.75;0.70;;;13.10;99.90;;;;;;5046396;28;20127;-69
2022/07/28 03:04:55;;;;;;;0.80;0.60;;;13.00;99.90;;;;;;5041765;28;20088;-67
2022/07/28 03:07:04;;;;;;;0.80;0.70;;;13.00;99.90;;;;;;5037153;28;20434;-65
2022/07/28 03:09:38;;;;;;;0.57;0.50;;;13.00;99.90;;;;;;5038930;28;20048;-64
2022/07/28 03:12:06;;;;;;;0.22;0.22;;;13.00;99.90;;;;;;5038002;28;20364;-65
2022/07/28 03:14:33;;;;;;;0.98;0.40;;;13.00;99.90;;;;;;5042280;28;20522;-67
2022/07/28 03:17:00;;;;;;;0.73;0.40;;;13.00;99.90;;;;;;5046578;28;20144;-66
2022/07/28 03:19:27;;;;;;;0.85;0.52;;;13.00;99.90;;;;;;5039629;28;20051;-66
2022/07/28 03:21:54;;;;;;;1.17;0.50;;;13.00;99.90;;;;;;5046737;28;20489;-65
2022/07/28 03:24:24;;;;;;;1.60;0.95;;;13.00;99.90;;;;;;5043454;28;20076;-65
2022/07/28 03:27:14;;;;;;;0.65;0.65;;;13.00;99.90;;;;;;5043741;28;20144;-64
2022/07/28 03:29:42;;;;;;;3.85;0.35;;;13.10;99.90;;;;;;5041134;28;20128;-65
2022/07/28 03:32:10;;;;;;;1.85;0.70;;;13.10;99.90;;;;;;5035446;28;20065;-65
2022/07/28 03:34:37;;;;;;;0.70;0.50;;;13.00;99.90;;;;;;5042261;28;20143;-65
2022/07/28 03:37:13;;;;;;;0.40;0.40;;;13.00;99.90;;;;;;5035040;28;20206;-65
2022/07/28 03:39:47;;;;;;;1.83;0.40;;;13.10;99.90;;;;;;5048486;28;20064;-65
2022/07/28 03:42:18;;;;;;;0.68;0.60;;;13.10;99.90;;;;;;5040320;28;20592;-64
2022/07/28 03:44:46;;;;;;;0.73;0.45;;;13.10;99.90;;;;;;5045886;28;20091;-65
2022/07/28 03:47:14;;;;;;;0.70;0.68;;;13.10;99.90;;;;;;5035113;28;20749;-65
2022/07/28 03:49:44;;;;;;;0.80;0.80;;;13.10;99.90;;;;;;5043139;28;20128;-65
2022/07/28 03:52:12;;;;;;;0.98;0.50;;;13.20;99.90;;;;;;5037706;28;20934;-65
2022/07/28 03:54:39;;;;;;;1.55;0.75;;;13.20;99.90;;;;;;5043685;28;20406;-66
2022/07/28 03:57:05;;;;;;;2.40;1.95;;;13.30;99.90;;;;;;5043922;28;20037;-65
2022/07/28 03:59:32;;;;;;;0.52;0.50;;;13.20;99.90;;;;;;5050747;28;20156;-66
2022/07/28 04:01:59;;;;;;;0.63;0.45;;;13.30;99.90;;;;;;5042110;28;20040;-66
2022/07/28 04:04:27;;;;;;;0.40;0.30;;;13.30;99.90;;;;;;5045966;28;20453;-69
2022/07/28 04:06:54;;;;;;;1.55;0.82;;;13.30;99.90;;;;;;5047901;28;20118;-65
2022/07/28 04:09:22;;;;;;;5.30;0.98;;;13.30;99.90;;;;;;5043424;28;20051;-66
2022/07/28 04:11:48;;;;;;;1.88;0.82;;;13.40;99.90;;;;;;5047685;28;20103;-68
2022/07/28 04:14:16;;;;;;;1.40;0.95;;;13.50;99.90;;;;;;5032391;28;22434;-64
2022/07/28 04:16:44;;;;;;;2.30;0.80;;;13.50;99.90;;;;;;5032575;28;20053;-68
2022/07/28 04:19:11;;;;;;;1.02;0.70;;;13.50;99.90;;;;;;5018208;28;20052;-68
2022/07/28 04:21:38;;;;;;;0.70;0.50;;;13.60;99.90;;;;;;5026522;28;20045;-65
2022/07/28 04:24:07;;;;;;;1.77;0.80;;;13.60;99.90;;;;;;5032079;28;20136;-65
2022/07/28 04:26:34;;;;;;;0.88;0.45;;;13.60;99.90;;;;;;5031538;28;20048;-69
2022/07/28 04:29:01;;;;;;;2.20;0.73;;;13.70;99.90;;;;;;5033899;28;20061;-64
2022/07/28 04:31:29;;;;;;;0.60;0.60;;;13.80;99.90;;;;;;5025759;28;20033;-65
2022/07/28 04:33:56;;;;;;;0.95;0.47;;;13.80;99.90;;;;;;5028821;28;20052;-69
2022/07/28 04:36:24;;;;;;;0.63;0.50;;;13.80;99.90;;;;;;5027042;28;20053;-66
2022/07/28 04:38:51;;;;;;;2.40;0.60;;;13.80;99.90;;;;;;5020183;28;20083;-65
2022/07/28 04:41:18;;;;;;;5.10;0.75;;;13.90;99.90;;;;;;5026420;28;20141;-69
2022/07/28 04:43:44;;;;;;;1.30;0.70;;;13.90;99.90;;;;;;5026949;28;20160;-64
2022/07/28 04:46:11;;;;;;;0.82;0.60;;;14.00;99.90;;;;;;5032020;28;20414;-65
2022/07/28 04:48:41;;;;;;;2.75;0.60;;;14.00;99.90;;;;;;5027045;28;20039;-69
2022/07/28 04:51:08;;;;;;;0.52;0.50;;;14.00;99.90;;;;;;5018509;28;20055;-66
2022/07/28 04:53:35;;;;;;;0.30;0.30;;;14.00;99.90;;;;;;5028204;28;20057;-65
2022/07/28 04:56:03;;;;;;;0.88;0.43;;;14.00;99.90;;;;;;5025456;28;20107;-68
2022/07/28 04:58:30;;;;;;;1.10;0.17;;;14.00;99.90;;;;;;5026573;28;20058;-66
2022/07/28 05:00:58;;;;;;;0.80;0.40;;;14.10;99.90;;;;;;5026648;28;20047;-68
2022/07/28 05:03:25;;;;;;;0.77;0.40;;;14.20;99.90;;;;;;5025970;28;20045;-70
2022/07/28 05:05:53;;;;;;;0.30;0.30;;;14.20;99.90;;;;;;5027947;28;20071;-64
2022/07/28 05:08:22;;;;;;;1.20;0.63;;;14.30;99.90;;;;;;5030152;28;20045;-65
2022/07/28 05:10:53;;;;;;;1.17;0.28;;;14.40;99.90;;;;;;5024147;28;20484;-64
2022/07/28 05:13:20;;;;;;;1.40;0.30;;;14.60;99.90;;;;;;5025527;28;20119;-66
2022/07/28 05:15:47;;;;;;;0.85;0.60;;;14.70;99.90;;;;;;5034764;28;20095;-68
2022/07/28 05:18:14;;;;;;;0.52;0.35;;;14.80;99.90;;;;;;5038208;28;20041;-64
2022/07/28 05:20:41;;;;;;;0.35;0.20;;;15.00;99.90;;;;;;5026737;28;20824;-64
2022/07/28 05:23:10;;;;;;;2.00;0.30;;;15.00;99.90;;;;;;5019109;28;20056;-66
2022/07/28 05:25:37;;;;;;;0.77;0.40;;;15.10;99.90;;;;;;5035637;28;20056;-65
2022/07/28 05:28:04;;;;;;;0.20;0.20;;;15.20;99.90;;;;;;5039242;28;20075;-67
2022/07/28 05:30:31;;;;;;;1.48;0.30;;;15.30;99.90;;;;;;5021808;28;20096;-65
2022/07/28 05:33:00;;;;;;;2.35;0.57;;;15.30;99.90;;;;;;5041666;28;20459;-67
2022/07/28 05:35:27;;;;;;;1.40;0.40;;;15.50;99.90;;;;;;5034542;28;20045;-64
2022/07/28 05:37:54;;;;;;;3.20;0.25;;;15.50;99.90;;;;;;5023909;28;20076;-65
2022/07/28 05:40:21;;;;;;;1.33;0.40;;;15.60;99.90;;;;;;5034568;28;20041;-66
2022/07/28 05:42:48;;;;;;;0.55;0.35;;;15.70;99.90;;;;;;5034851;28;20094;-65
2022/07/28 05:45:15;;;;;;;1.55;0.30;;;15.80;99.90;;;;;;5028613;28;20110;-67
2022/07/28 05:47:46;;;;;;;1.00;0.30;;;15.80;99.90;;;;;;5035865;28;20116;-65
2022/07/28 05:50:17;;;;;;;2.15;0.57;;;15.90;99.90;;;;;;5028438;28;20099;-67
2022/07/28 05:52:46;;;;;;;0.65;0.20;;;15.90;99.90;;;;;;5021109;28;20594;-67
2022/07/28 05:55:13;;;;;;;1.17;0.30;;;15.90;99.90;;;;;;5028463;28;20041;-69
2022/07/28 05:57:41;;;;;;;0.40;0.20;;;15.90;99.90;;;;;;5040345;28;20118;-65
2022/07/28 06:00:11;;;;;;;0.43;0.38;;;15.90;99.90;;;;;;5025907;28;20048;-69
2022/07/28 06:02:39;;;;;;;1.30;0.38;;;15.90;99.90;;;;;;5028157;28;20064;-70
2022/07/28 06:05:06;;;;;;;0.82;0.32;;;16.00;99.90;;;;;;5031987;28;20383;-65
2022/07/28 06:07:33;;;;;;;0.95;0.52;;;15.90;99.90;;;;;;5020493;28;20069;-65
2022/07/28 06:10:11;;;;;;;0.25;0.20;;;16.00;99.90;;;;;;5025253;28;20383;-67
2022/07/28 06:12:43;;;;;;;1.10;0.30;;;16.00;99.90;;;;;;5039842;28;20463;-68
2022/07/28 06:15:15;;;;;;;0.68;0.68;;;16.00;99.90;;;;;;5034191;28;20050;-66
2022/07/28 06:17:42;;;;;;;1.40;0.47;;;16.10;99.90;;;;;;5028435;28;20392;-65
2022/07/28 06:20:10;;;;;;;0.95;0.40;;;16.10;99.90;;;;;;5037229;28;20049;-67
2022/07/28 06:22:46;;;;;;;2.05;0.40;;;16.20;99.90;;;;;;5020064;28;20132;-64
2022/07/28 06:25:15;;;;;;;2.05;1.05;;;16.20;99.90;;;;;;5022485;28;20116;-69
2022/07/28 06:27:44;;;;;;;0.63;0.30;;;16.30;99.90;;;;;;5030572;28;20478;-64
2022/07/28 06:30:11;;;;;;;2.30;0.60;;;16.40;99.90;;;;;;5034524;28;20076;-66
2022/07/28 06:32:38;;;;;;;2.47;0.52;;;16.50;99.90;;;;;;5021028;28;20099;-68
2022/07/28 06:35:05;;;;;;;0.80;0.43;;;16.60;99.90;;;;;;5025016;28;20045;-69
2022/07/28 06:37:33;;;;;;;0.50;0.30;;;16.70;99.90;;;;;;5026567;28;20134;-65
2022/07/28 06:40:00;;;;;;;0.43;0.30;;;16.80;99.90;;;;;;5037447;28;20045;-66
2022/07/28 06:42:27;;;;;;;0.45;0.28;;;16.70;99.90;;;;;;5023074;28;20486;-64
2022/07/28 06:44:54;;;;;;;0.55;0.30;;;16.70;99.90;;;;;;5020430;28;20049;-65
2022/07/28 06:47:25;;;;;;;0.20;0.20;;;16.70;99.90;;;;;;5029227;28;20156;-68
2022/07/28 06:49:52;;;;;;;1.23;0.85;;;16.70;99.90;;;;;;5023608;28;20050;-64
2022/07/28 06:52:20;;;;;;;0.30;0.30;;;16.70;99.90;;;;;;5033805;28;20068;-65
2022/07/28 06:54:50;;;;;;;1.27;0.40;;;16.80;99.90;;;;;;5033556;28;20037;-70
2022/07/28 06:57:19;;;;;;;1.30;0.60;;;16.70;99.90;;;;;;5026988;28;20054;-68
2022/07/28 06:59:49;;;;;;;0.40;0.25;;;16.80;99.90;;;;;;5038180;28;20161;-65
2022/07/28 07:02:16;;;;;;;0.43;0.40;;;16.80;99.90;;;;;;5033479;28;20056;-64
2022/07/28 07:04:44;;;;;;;0.93;0.85;;;16.80;99.90;;;;;;5024539;28;20752;-66
2022/07/28 07:07:11;;;;;;;1.15;0.40;;;16.80;99.90;;;;;;5039340;28;20033;-68
2022/07/28 07:09:43;;;;;;;0.63;0.63;;;16.70;99.90;;;;;;5025545;28;20049;-65
2022/07/28 07:12:10;;;;;;;0.43;0.38;;;16.90;99.90;;;;;;5036666;28;20122;-65
2022/07/28 07:14:37;;;;;;;0.30;0.20;;;16.90;99.90;;;;;;5027623;28;20103;-64
2022/07/28 07:17:04;;;;;;;1.60;0.38;;;16.80;99.90;;;;;;5026126;28;20543;-65
2022/07/28 07:19:32;;;;;;;0.77;0.35;;;16.80;99.90;;;;;;5029902;28;20041;-65
2022/07/28 07:21:59;;;;;;;0.20;0.20;;;16.90;99.90;;;;;;5035195;28;20056;-69
2022/07/28 07:24:26;;;;;;;0.43;0.30;;;16.90;99.90;;;;;;5028771;28;20041;-65
2022/07/28 07:26:54;;;;;;;1.65;0.50;;;16.90;99.90;;;;;;5034046;28;20257;-64
2022/07/28 07:29:21;;;;;;;1.83;1.00;;;16.90;99.90;;;;;;5022555;28;20119;-65
2022/07/28 07:31:48;;;;;;;0.30;0.30;;;17.00;99.90;;;;;;5024994;28;20045;-66
2022/07/28 07:34:19;;;;;;;0.50;0.22;;;17.00;99.90;;;;;;5034465;28;20049;-65
2022/07/28 07:36:46;;;;;;;0.85;0.40;;;17.00;99.90;;;;;;5029319;28;20037;-65
2022/07/28 07:39:13;;;;;;;0.30;0.30;;;17.10;99.90;;;;;;5026559;28;20099;-68
2022/07/28 07:41:40;;;;;;;3.35;0.73;;;17.10;99.90;;;;;;5034903;28;20057;-69
2022/07/28 07:44:08;;;;;;;1.55;0.30;;;17.10;99.90;;;;;;5037707;28;20363;-65
2022/07/28 07:46:37;;;;;;;0.30;0.20;;;17.10;99.90;;;;;;5025392;28;20041;-64
2022/07/28 07:49:05;;;;;;;0.60;0.40;;;17.10;99.90;;;;;;5037229;28;20080;-67
2022/07/28 07:51:33;;;;;;;1.75;0.60;;;17.10;99.90;;;;;;5035474;28;20099;-69
2022/07/28 07:54:00;;;;;;;0.20;0.10;;;17.00;99.90;;;;;;5039108;28;20091;-67
2022/07/28 07:56:27;;;;;;;0.45;0.40;;;17.00;99.90;;;;;;5033974;28;20349;-70
2022/07/28 07:58:54;;;;;;;0.30;0.30;;;17.00;99.90;;;;;;5044595;28;20075;-70
2022/07/28 08:01:23;;;;;;;0.30;0.30;;;17.10;99.90;;;;;;5025695;28;20906;-67
2022/07/28 08:03:50;;;;;;;2.17;0.60;;;17.10;99.90;;;;;;5025304;28;20049;-65
2022/07/28 08:06:19;;;;;;;0.60;0.40;;;17.10;99.90;;;;;;5028114;28;20172;-69
2022/07/28 08:08:53;;;;;;;0.25;0.20;;;17.10;99.90;;;;;;5033275;28;20053;-69
2022/07/28 08:11:21;;;;;;;2.92;0.95;;;17.20;99.90;;;;;;5039850;28;20053;-65
2022/07/28 08:13:48;;;;;;;0.40;0.38;;;17.20;99.90;;;;;;5039817;28;20052;-67
2022/07/28 08:16:15;;;;;;;0.93;0.47;;;17.20;99.90;;;;;;5035630;28;20057;-67
2022/07/28 08:18:43;;;;;;;0.40;0.30;;;17.20;99.90;;;;;;5045159;28;20056;-65
2022/07/28 08:21:11;;;;;;;7.10;0.52;;;17.30;99.90;;;;;;5043050;28;20087;-66
2022/07/28 08:23:39;;;;;;;1.08;0.70;;;17.30;99.90;;;;;;5035545;28;20076;-65
2022/07/28 08:26:06;;;;;;;0.30;0.22;;;17.30;99.90;;;;;;5032566;28;20041;-65
2022/07/28 08:28:33;;;;;;;1.52;0.40;;;17.30;99.90;;;;;;5038759;28;20049;-66
2022/07/28 08:31:00;;;;;;;0.70;0.47;;;17.30;99.90;;;;;;5040202;28;20040;-67
2022/07/28 08:33:28;;;;;;;0.40;0.40;;;17.30;99.90;;;;;;5027181;28;20095;-66
2022/07/28 08:35:55;;;;;;;0.75;0.57;;;17.40;99.90;;;;;;5038744;28;20119;-65
2022/07/28 08:38:22;;;;;;;0.95;0.47;;;17.40;99.90;;;;;;5039300;28;20033;-65
2022/07/28 08:40:52;;;;;;;0.22;0.22;;;17.40;99.90;;;;;;5038819;28;20061;-65
2022/07/28 08:43:31;;;;;;;1.53;0.33;;;17.50;99.90;;;;;;5025734;28;20758;-69
2022/07/28 08:46:00;;;;;;;2.25;0.38;;;17.40;99.90;;;;;;5022713;28;20412;-67
2022/07/28 08:48:30;;;;;;;0.50;0.40;;;17.40;99.90;;;;;;5037841;28;20040;-67
2022/07/28 08:51:09;;;;;;;0.82;0.20;;;17.40;99.90;;;;;;5042495;28;20052;-67
2022/07/28 08:53:39;;;;;;;0.50;0.40;;;17.50;99.90;;;;;;5028999;28;20427;-70
2022/07/28 08:56:15;;;;;;;1.42;0.50;;;17.50;99.90;;;;;;5036964;28;20049;-65
2022/07/28 08:58:42;;;;;;;0.55;0.25;;;17.40;99.90;;;;;;5041088;28;20047;-65
2022/07/28 09:01:10;;;;;;;1.77;0.40;;;17.50;99.90;;;;;;5022952;28;20052;-64
2022/07/28 09:03:38;;;;;;;0.82;0.40;;;17.50;99.90;;;;;;5032487;28;20104;-65
2022/07/28 09:06:05;;;;;;;0.30;0.20;;;17.40;99.90;;;;;;5042784;28;20128;-65
2022/07/28 09:08:33;;;;;;;2.25;0.40;;;17.60;99.90;;;;;;5028193;28;20231;-66
2022/07/28 09:11:00;;;;;;;0.95;0.50;;;17.60;99.90;;;;;;5026820;28;20154;-65
2022/07/28 09:13:27;;;;;;;2.38;0.57;;;17.80;99.90;;;;;;5040052;28;20044;-67
2022/07/28 09:15:54;;;;;;;0.50;0.50;;;17.80;99.90;;;;;;5015176;28;20095;-64
2022/07/28 09:18:22;;;;;;;0.85;0.30;;;17.80;99.90;;;;;;5028019;28;20058;-64
2022/07/28 09:20:48;;;;;;;1.42;0.40;;;17.80;99.90;;;;;;5014693;28;20077;-65
2022/07/28 09:23:15;;;;;;;0.55;0.30;;;17.80;99.90;;;;;;5018045;28;20100;-66
2022/07/28 09:26:07;;;;;;;2.03;0.30;;;17.80;99.90;;;;;;5015628;28;20041;-64
2022/07/28 09:28:51;;;;;;;0.25;0.22;;;17.80;99.90;;;;;;5014039;28;20041;-68
2022/07/28 09:31:20;;;;;;;1.85;0.38;;;17.90;99.90;;;;;;5025086;28;20128;-68
2022/07/28 09:33:54;;;;;;;0.75;0.40;;;17.80;99.90;;;;;;5025878;28;20137;-64
2022/07/28 09:36:21;;;;;;;1.00;0.38;;;17.90;99.90;;;;;;5000594;28;20733;-64
2022/07/28 09:38:48;;;;;;;0.70;0.20;;;17.90;99.90;;;;;;5000110;28;20176;-70
2022/07/28 09:41:18;;;;;;;1.92;0.95;;;18.00;99.90;;;;;;5001155;28;20073;-65
2022/07/28 09:43:45;;;;;;;1.13;0.20;;;18.00;99.90;;;;;;5012495;28;20057;-69
2022/07/28 09:46:24;;;;;;;0.80;0.20;;;18.00;99.90;;;;;;5008383;28;20321;-66
2022/07/28 09:48:58;;;;;;;0.20;0.20;;;18.10;99.90;;;;;;5016632;28;20053;-64
2022/07/28 09:51:28;;;;;;;0.90;0.50;;;18.10;99.90;;;;;;5000235;28;20436;-69
2022/07/28 09:54:13;;;;;;;0.75;0.60;;;18.10;99.90;;;;;;5012821;28;20778;-67
2022/07/28 09:56:43;;;;;;;0.32;0.32;;;18.00;99.90;;;;;;5016853;28;20120;-72
2022/07/28 09:59:11;;;;;;;1.40;0.40;;;18.00;99.90;;;;;;5020093;28;20045;-65
2022/07/28 10:02:01;;;;;;;0.50;0.50;;;17.90;99.90;;;;;;5019657;28;20049;-66
2022/07/28 10:04:32;;;;;;;0.70;0.30;;;18.10;99.90;;;;;;5013657;28;20045;-68
2022/07/28 10:07:05;;;;;;;0.52;0.30;;;18.10;99.90;;;;;;5012336;28;20048;-67
2022/07/28 10:09:33;;;;;;;3.53;0.50;;;18.00;99.90;;;;;;5016151;28;20048;-65
2022/07/28 10:12:19;;;;;;;2.33;0.80;;;18.10;99.90;;;;;;5016871;28;20049;-65
2022/07/28 10:14:49;;;;;;;0.65;0.25;;;18.10;99.90;;;;;;5028697;28;20557;-64
2022/07/28 10:17:30;;;;;;;0.82;0.52;;;18.20;99.90;;;;;;5027917;28;20079;-64
2022/07/28 10:19:59;;;;;;;3.40;0.45;;;18.30;99.90;;;;;;5033757;28;20555;-66
2022/07/28 10:22:31;;;;;;;0.60;0.47;;;18.20;99.90;;;;;;5032218;28;20049;-64
2022/07/28 10:25:04;;;;;;;1.52;0.30;;;18.10;99.90;;;;;;5042341;28;20094;-69
2022/07/28 10:27:31;;;;;;;1.20;0.38;;;18.20;99.90;;;;;;5041462;28;20041;-65
2022/07/28 10:30:01;;;;;;;0.43;0.40;;;18.30;99.90;;;;;;5042467;28;20049;-67
2022/07/28 10:32:30;;;;;;;0.52;0.38;;;18.30;99.90;;;;;;5029499;28;20041;-65
2022/07/28 10:35:14;;;;;;;0.73;0.40;;;18.40;99.90;;;;;;5041701;28;20089;-66
2022/07/28 10:37:56;;;;;;;0.93;0.20;;;18.40;99.90;;;;;;5033221;28;20041;-67
2022/07/28 10:40:26;;;;;;;1.75;0.47;;;18.50;99.90;;;;;;5035974;28;20052;-65
2022/07/28 10:42:53;;;;;;;;;;;18.40;99.90;;;;;;5040844;28;20157;-70
2022/07/28 10:45:21;;;;;;;1.90;0.73;;;18.40;99.90;;;;;;5040195;28;19959;-70
2022/07/28 10:47:49;;;;;;;0.50;0.17;;;18.40;99.90;;;;;;5036684;28;20052;-65
2022/07/28 10:50:17;;;;;;;1.38;0.45;;;18.40;99.90;;;;;;5034504;28;20080;-70
2022/07/28 10:52:45;;;;;;;0.82;0.43;;;18.30;99.90;;;;;;5034881;28;20200;-70
2022/07/28 10:55:56;;;;;;;0.00;0.00;;;18.30;99.90;;;;;;5034028;28;20065;-65
2022/07/28 10:58:52;;;;;;;0.55;0.40;;;18.20;99.90;;;;;;5024583;28;20050;-69
2022/07/28 11:01:55;;;;;;;0.35;0.30;;;18.30;99.90;;;;;;5038318;28;20350;-65
2022/07/28 11:04:51;;;;;;;0.95;0.40;;;18.50;99.90;;;;;;4962538;28;20054;-65
2022/07/28 11:07:19;;;;;;;0.77;0.22;;;18.50;99.90;;;;;;5034062;28;20136;-67
2022/07/28 11:09:46;;;;;;;0.25;0.22;;;18.60;99.90;;;;;;5037976;28;20069;-68
2022/07/28 11:12:14;;;;;;;0.20;0.20;;;18.50;99.90;;;;;;5042924;28;20041;-67
2022/07/28 11:14:43;;;;;;;0.28;0.10;;;18.60;99.90;;;;;;5037860;28;20050;-66
2022/07/28 11:17:15;;;;;;;1.60;0.55;;;18.50;99.90;;;;;;5039994;28;20159;-66
2022/07/28 11:19:52;;;;;;;0.77;0.45;;;18.60;99.90;;;;;;5038319;28;20073;-66
2022/07/28 11:22:38;;;;;;;0.38;0.30;;;18.70;99.90;;;;;;5030311;28;20068;-67
2022/07/28 11:25:06;;;;;;;0.73;0.20;;;18.60;99.90;;;;;;5033931;28;20041;-64
2022/07/28 11:27:50;;;;;;;1.30;0.65;;;18.60;99.90;;;;;;5037624;28;20049;-65
2022/07/28 11:30:17;;;;;;;0.20;0.20;;;18.70;99.90;;;;;;5035251;28;20041;-65
2022/07/28 11:32:53;;;;;;;0.60;0.20;;;18.60;99.90;;;;;;5043326;28;20044;-66
2022/07/28 11:35:22;;;;;;;0.70;0.45;;;18.70;99.90;;;;;;5040869;28;20717;-64
2022/07/28 11:38:01;;;;;;;2.05;0.60;;;18.80;99.90;;;;;;5041646;28;20088;-65
2022/07/28 11:40:40;;;;;;;1.70;0.25;;;18.70;99.90;;;;;;5033692;28;20063;-70
2022/07/28 11:43:22;;;;;;;0.30;0.30;;;18.70;99.90;;;;;;5035458;28;20072;-69
2022/07/28 11:46:07;;;;;;;0.85;0.50;;;18.60;99.90;;;;;;5037964;28;20127;-66
2022/07/28 11:48:40;;;;;;;0.47;0.47;;;18.60;99.90;;;;;;5038627;28;20063;-64
2022/07/28 11:51:12;;;;;;;5.13;0.70;;;18.60;99.90;;;;;;5032899;28;20064;-69
2022/07/28 11:53:39;;;;;;;0.85;0.30;;;18.70;99.90;;;;;;5035897;28;20045;-66
2022/07/28 11:56:08;;;;;;;0.75;0.30;;;18.70;99.90;;;;;;5027936;28;20406;-71
2022/07/28 11:58:36;;;;;;;0.55;0.38;;;18.70;99.90;;;;;;5039130;28;20044;-69
2022/07/28 12:01:13;;;;;;;1.30;0.40;;;18.70;99.90;;;;;;5040988;28;20055;-66
2022/07/28 12:03:47;;;;;;;1.98;0.40;;;18.70;99.90;;;;;;5045254;28;20060;-65
2022/07/28 12:06:23;;;;;;;1.02;0.50;;;18.60;99.90;;;;;;5041637;28;20195;-65
2022/07/28 12:09:01;;;;;;;0.52;0.20;;;18.70;99.90;;;;;;5038812;28;20068;-64
2022/07/28 12:11:42;;;;;;;0.52;0.35;;;18.70;99.90;;;;;;5035464;28;20655;-65
2022/07/28 12:14:11;;;;;;;0.30;0.28;;;18.70;99.90;;;;;;5037445;28;20106;-65
2022/07/28 12:16:44;;;;;;;1.65;0.30;;;18.50;99.90;;;;;;5045474;28;20044;-65
2022/07/28 12:19:15;;;;;;;1.17;0.30;;;18.60;99.90;;;;;;5042762;28;20045;-67
2022/07/28 12:21:53;;;;;;;1.70;0.28;;;18.70;99.90;;;;;;5041278;28;20539;-71
2022/07/28 12:24:32;;;;;;;0.47;0.40;;;18.80;99.90;;;;;;5046012;28;20147;-66
2022/07/28 12:27:12;;;;;;;1.67;0.20;;;18.80;99.90;;;;;;5037469;28;20051;-65
2022/07/28 12:29:42;;;;;;;;;;;18.60;99.90;;;;;;5032932;28;20052;-66
2022/07/28 12:32:09;;;;;;;0.30;0.25;;;18.60;99.90;;;;;;5030750;28;20062;-66
2022/07/28 12:34:38;;;;;;;0.32;0.30;;;18.50;99.90;;;;;;5045103;28;20611;-65
2022/07/28 12:37:10;;;;;;;0.88;0.45;;;18.40;99.90;;;;;;5036717;28;20148;-65
2022/07/28 12:39:40;;;;;;;0.38;0.20;;;18.50;99.90;;;;;;5042108;28;20094;-67
2022/07/28 12:42:09;;;;;;;;;;;18.40;99.90;;;;;;5034023;28;20042;-68
2022/07/28 12:44:41;;;;;;;1.02;0.50;;;18.50;99.90;;;;;;5040461;28;19925;-69
2022/07/28 12:47:11;;;;;;;0.55;0.30;;;18.70;99.90;;;;;;5038803;28;20041;-68
2022/07/28 12:49:40;;;;;;;0.25;0.22;;;18.70;99.90;;;;;;5044864;28;20049;-68
2022/07/28 12:52:21;;;;;;;0.55;0.25;;;18.60;99.90;;;;;;5037924;28;20096;-67
2022/07/28 12:54:53;;;;;;;0.10;0.10;;;18.80;99.90;;;;;;5032249;28;20056;-67
2022/07/28 12:57:38;;;;;;;0.55;0.40;;;18.90;99.90;;;;;;5033638;28;20057;-66
2022/07/28 13:00:17;;;;;;;0.30;0.30;;;18.90;99.90;;;;;;5031151;28;20191;-65
2022/07/28 13:02:45;;;;;;;0.90;0.40;;;18.70;99.90;;;;;;5041336;28;20045;-69
2022/07/28 13:05:30;;;;;;;1.00;0.60;;;18.80;99.90;;;;;;5040787;28;20040;-69
2022/07/28 13:08:05;;;;;;;0.45;0.30;;;19.00;99.90;;;;;;5043111;28;20115;-68
2022/07/28 13:10:32;;;;;;;0.40;0.30;;;19.10;99.90;;;;;;5036422;28;20478;-66